sensor_id;sensor_type;location;lat;lon;timestamp;temperature;humidity
20182;DHT22;10250;50.756;6.172;2023-11-21T00:01:58;8.70;99.90
20182;DHT22;10250;50.756;6.172;2023-11-21T00:03:58;8.70;99.90
20182;DHT22;10250;50.756;6.172;2023-11-21T00:05:59;8.60;99.90
20182;DHT22;10250;50.756;6.172;2023-11-21T00:08:00;8.70;99.90
20182;DHT22;10250;50.756;6.172;2023-11-21T00:10:01;8.70;99.90
20182;DHT22;10250;50.756;6.172;2023-11-21T00:12:03;8.70;99.90
20182;DHT22;10250;50.756;6.172;2023-11-21T00:14:04;8.70;99.90
20182;DHT22;10250;50.756;6.172;2023-11-21T00:16:05;8.70;99.90
20182;DHT22;10250;50.756;6.172;2023-11-21T00:18:06;8.60;99.90
20182;DHT22;10250;50.756;6.172;2023-11-21T00:20:07;8.70;99.90
20182;DHT22;10250;50.756;6.172;2023-11-21T00:22:08;8.70;99.90
20182;DHT22;10250;50.756;6.172;2023-11-21T00:24:09;8.70;99.90
20182;DHT22;10250;50.756;6.172;2023-11-21T00:26:10;8.60;99.90
20182;DHT22;10250;50.756;6.172;2023-11-21T00:28:10;8.70;99.90
20182;DHT22;10250;50.756;6.172;2023-11-21T00:30:11;8.60;99.90
20182;DHT22;10250;50.756;6.172;2023-11-21T00:32:12;8.60;99.90
20182;DHT22;10250;50.756;6.172;2023-11-21T00:34:13;8.60;99.90
20182;DHT22;10250;50.756;6.172;2023-11-21T00:36:14;8.60;99.90
20182;DHT22;10250;50.756;6.172;2023-11-21T00:38:14;8.70;99.90
20182;DHT22;10250;50.756;6.172;2023-11-21T00:40:15;8.60;99.90
20182;DHT22;10250;50.756;6.172;2023-11-21T00:42:19;8.60;99.90
20182;DHT22;10250;50.756;6.172;2023-11-21T00:44:20;8.60;99.90
20182;DHT22;10250;50.756;6.172;2023-11-21T00:46:20;8.60;99.90
20182;DHT22;10250;50.756;6.172;2023-11-21T00:48:21;8.60;99.90
20182;DHT22;10250;50.756;6.172;2023-11-21T00:50:22;8.60;99.90
20182;DHT22;10250;50.756;6.172;2023-11-21T00:52:22;8.60;99.90
20182;DHT22;10250;50.756;6.172;2023-11-21T00:54:23;8.60;99.90
20182;DHT22;10250;50.756;6.172;2023-11-21T00:56:23;8.60;99.90
20182;DHT22;10250;50.756;6.172;2023-11-21T00:58:24;8.50;99.90
20182;DHT22;10250;50.756;6.172;2023-11-21T01:00:25;8.60;99.90
20182;DHT22;10250;50.756;6.172;2023-11-21T01:02:26;8.50;99.90
20182;DHT22;10250;50.756;6.172;2023-11-21T01:04:27;8.60;99.90
20182;DHT22;10250;50.756;6.172;2023-11-21T01:06:27;8.60;99.90
20182;DHT22;10250;50.756;6.172;2023-11-21T01:08:28;8.50;99.90
20182;DHT22;10250;50.756;6.172;2023-11-21T01:10:29;8.50;99.90
20182;DHT22;10250;50.756;6.172;2023-11-21T01:12:30;8.40;99.90
20182;DHT22;10250;50.756;6.172;2023-11-21T01:14:30;8.50;99.90
20182;DHT22;10250;50.756;6.172;2023-11-21T01:16:31;8.50;99.90
20182;DHT22;10250;50.756;6.172;2023-11-21T01:18:33;8.60;99.90
20182;DHT22;10250;50.756;6.172;2023-11-21T01:20:34;8.50;99.90
20182;DHT22;10250;50.756;6.172;2023-11-21T01:22:34;8.50;99.90
20182;DHT22;10250;50.756;6.172;2023-11-21T01:24:35;8.50;99.90
20182;DHT22;10250;50.756;6.172;2023-11-21T01:26:36;8.50;99.90
20182;DHT22;10250;50.756;6.172;2023-11-21T01:28:37;8.40;99.90
20182;DHT22;10250;50.756;6.172;2023-11-21T01:30:37;8.50;99.90
20182;DHT22;10250;50.756;6.172;2023-11-21T01:32:38;8.50;99.90
20182;DHT22;10250;50.756;6.172;2023-11-21T01:34:39;8.50;99.90
20182;DHT22;10250;50.756;6.172;2023-11-21T01:36:40;8.50;99.90
20182;DHT22;10250;50.756;6.172;2023-11-21T01:38:43;8.40;99.90
20182;DHT22;10250;50.756;6.172;2023-11-21T01:40:44;8.40;99.90
20182;DHT22;10250;50.756;6.172;2023-11-21T01:42:45;8.40;99.90
20182;DHT22;10250;50.756;6.172;2023-11-21T01:44:47;8.40;99.90
20182;DHT22;10250;50.756;6.172;2023-11-21T01:46:48;8.40;99.90
20182;DHT22;10250;50.756;6.172;2023-11-21T01:48:49;8.40;99.90
20182;DHT22;10250;50.756;6.172;2023-11-21T01:50:50;8.40;99.90
20182;DHT22;10250;50.756;6.172;2023-11-21T01:52:52;8.40;99.90
20182;DHT22;10250;50.756;6.172;2023-11-21T01:54:53;8.30;99.90
20182;DHT22;10250;50.756;6.172;2023-11-21T01:56:53;8.40;99.90
20182;DHT22;10250;50.756;6.172;2023-11-21T01:58:54;8.40;99.90
20182;DHT22;10250;50.756;6.172;2023-11-21T02:00:55;8.40;99.90
20182;DHT22;10250;50.756;6.172;2023-11-21T02:02:56;8.40;99.90
20182;DHT22;10250;50.756;6.172;2023-11-21T02:04:57;8.40;99.90
20182;DHT22;10250;50.756;6.172;2023-11-21T02:06:57;8.40;99.90
20182;DHT22;10250;50.756;6.172;2023-11-21T02:08:58;8.40;99.90
20182;DHT22;10250;50.756;6.172;2023-11-21T02:11:00;8.40;99.90
20182;DHT22;10250;50.756;6.172;2023-11-21T02:13:00;8.40;99.90
20182;DHT22;10250;50.756;6.172;2023-11-21T02:15:03;8.40;99.90
20182;DHT22;10250;50.756;6.172;2023-11-21T02:17:10;8.40;99.90
20182;DHT22;10250;50.756;6.172;2023-11-21T02:19:10;8.40;99.90
20182;DHT22;10250;50.756;6.172;2023-11-21T02:21:13;8.40;99.90
20182;DHT22;10250;50.756;6.172;2023-11-21T02:23:13;8.40;99.90
20182;DHT22;10250;50.756;6.172;2023-11-21T02:25:15;8.40;99.90
20182;DHT22;10250;50.756;6.172;2023-11-21T02:27:15;8.40;99.90
20182;DHT22;10250;50.756;6.172;2023-11-21T02:29:21;8.40;99.90
20182;DHT22;10250;50.756;6.172;2023-11-21T02:31:28;8.40;99.90
20182;DHT22;10250;50.756;6.172;2023-11-21T02:33:31;8.50;99.90
20182;DHT22;10250;50.756;6.172;2023-11-21T02:35:34;8.40;99.90
20182;DHT22;10250;50.756;6.172;2023-11-21T02:37:35;8.40;99.90
20182;DHT22;10250;50.756;6.172;2023-11-21T02:39:36;8.40;99.90
20182;DHT22;10250;50.756;6.172;2023-11-21T02:41:39;8.40;99.90
20182;DHT22;10250;50.756;6.172;2023-11-21T02:43:40;8.50;99.90
20182;DHT22;10250;50.756;6.172;2023-11-21T02:45:40;8.50;99.90
20182;DHT22;10250;50.756;6.172;2023-11-21T02:47:43;8.50;99.90
20182;DHT22;10250;50.756;6.172;2023-11-21T02:49:43;8.50;99.90
20182;DHT22;10250;50.756;6.172;2023-11-21T02:51:44;8.50;99.90
20182;DHT22;10250;50.756;6.172;2023-11-21T02:53:44;8.50;99.90
20182;DHT22;10250;50.756;6.172;2023-11-21T02:55:46;8.50;99.90
20182;DHT22;10250;50.756;6.172;2023-11-21T02:57:47;8.50;99.90
20182;DHT22;10250;50.756;6.172;2023-11-21T02:59:48;8.50;99.90
20182;DHT22;10250;50.756;6.172;2023-11-21T03:01:49;8.50;99.90
20182;DHT22;10250;50.756;6.172;2023-11-21T03:03:50;8.40;99.90
20182;DHT22;10250;50.756;6.172;2023-11-21T03:05:53;8.50;99.90
20182;DHT22;10250;50.756;6.172;2023-11-21T03:07:54;8.50;99.90
20182;DHT22;10250;50.756;6.172;2023-11-21T03:09:54;8.50;99.90
20182;DHT22;10250;50.756;6.172;2023-11-21T03:11:55;8.50;99.90
20182;DHT22;10250;50.756;6.172;2023-11-21T03:13:56;8.50;99.90
20182;DHT22;10250;50.756;6.172;2023-11-21T03:15:56;8.50;99.90
20182;DHT22;10250;50.756;6.172;2023-11-21T03:17:57;8.50;99.90
20182;DHT22;10250;50.756;6.172;2023-11-21T03:19:57;8.40;99.90
20182;DHT22;10250;50.756;6.172;2023-11-21T03:21:58;8.40;99.90
20182;DHT22;10250;50.756;6.172;2023-11-21T03:23:59;8.50;99.90
20182;DHT22;10250;50.756;6.172;2023-11-21T03:26:00;8.50;99.90
20182;DHT22;10250;50.756;6.172;2023-11-21T03:28:01;8.50;99.90
20182;DHT22;10250;50.756;6.172;2023-11-21T03:30:01;8.50;99.90
20182;DHT22;10250;50.756;6.172;2023-11-21T03:32:04;8.50;99.90
20182;DHT22;10250;50.756;6.172;2023-11-21T03:34:05;8.50;99.90
20182;DHT22;10250;50.756;6.172;2023-11-21T03:36:07;8.50;99.90
20182;DHT22;10250;50.756;6.172;2023-11-21T03:38:10;8.50;99.90
20182;DHT22;10250;50.756;6.172;2023-11-21T03:40:10;8.40;99.90
20182;DHT22;10250;50.756;6.172;2023-11-21T03:42:12;8.40;99.90
20182;DHT22;10250;50.756;6.172;2023-11-21T03:44:13;8.50;99.90
20182;DHT22;10250;50.756;6.172;2023-11-21T03:46:14;8.50;99.90
20182;DHT22;10250;50.756;6.172;2023-11-21T03:48:15;8.50;99.90
20182;DHT22;10250;50.756;6.172;2023-11-21T03:50:16;8.50;99.90
20182;DHT22;10250;50.756;6.172;2023-11-21T03:52:17;8.50;99.90
20182;DHT22;10250;50.756;6.172;2023-11-21T03:54:17;8.50;99.90
20182;DHT22;10250;50.756;6.172;2023-11-21T03:56:19;8.40;99.90
20182;DHT22;10250;50.756;6.172;2023-11-21T03:58:21;8.50;99.90
20182;DHT22;10250;50.756;6.172;2023-11-21T04:00:21;8.40;99.90
20182;DHT22;10250;50.756;6.172;2023-11-21T04:02:22;8.50;99.90
20182;DHT22;10250;50.756;6.172;2023-11-21T04:04:22;8.50;99.90
20182;DHT22;10250;50.756;6.172;2023-11-21T04:06:23;8.50;99.90
20182;DHT22;10250;50.756;6.172;2023-11-21T04:08:24;8.50;99.90
20182;DHT22;10250;50.756;6.172;2023-11-21T04:10:25;8.50;99.90
20182;DHT22;10250;50.756;6.172;2023-11-21T04:12:26;8.50;99.90
20182;DHT22;10250;50.756;6.172;2023-11-21T04:14:27;8.50;99.90
20182;DHT22;10250;50.756;6.172;2023-11-21T04:16:27;8.40;99.90
20182;DHT22;10250;50.756;6.172;2023-11-21T04:18:28;8.40;99.90
20182;DHT22;10250;50.756;6.172;2023-11-21T04:20:28;8.40;99.90
20182;DHT22;10250;50.756;6.172;2023-11-21T04:22:29;8.40;99.90
20182;DHT22;10250;50.756;6.172;2023-11-21T04:24:29;8.40;99.90
20182;DHT22;10250;50.756;6.172;2023-11-21T04:26:30;8.40;99.90
20182;DHT22;10250;50.756;6.172;2023-11-21T04:28:31;8.40;99.90
20182;DHT22;10250;50.756;6.172;2023-11-21T04:30:31;8.40;99.90
20182;DHT22;10250;50.756;6.172;2023-11-21T04:32:33;8.40;99.90
20182;DHT22;10250;50.756;6.172;2023-11-21T04:34:34;8.40;99.90
20182;DHT22;10250;50.756;6.172;2023-11-21T04:36:35;8.40;99.90
20182;DHT22;10250;50.756;6.172;2023-11-21T04:38:35;8.40;99.90
20182;DHT22;10250;50.756;6.172;2023-11-21T04:40:36;8.40;99.90
20182;DHT22;10250;50.756;6.172;2023-11-21T04:42:36;8.40;99.90
20182;DHT22;10250;50.756;6.172;2023-11-21T04:44:37;8.40;99.90
20182;DHT22;10250;50.756;6.172;2023-11-21T04:46:38;8.40;99.90
20182;DHT22;10250;50.756;6.172;2023-11-21T04:48:38;8.40;99.90
20182;DHT22;10250;50.756;6.172;2023-11-21T04:50:39;8.30;99.90
20182;DHT22;10250;50.756;6.172;2023-11-21T04:52:39;8.30;99.90
20182;DHT22;10250;50.756;6.172;2023-11-21T04:54:40;8.40;99.90
20182;DHT22;10250;50.756;6.172;2023-11-21T04:56:41;8.40;99.90
20182;DHT22;10250;50.756;6.172;2023-11-21T04:58:42;8.40;99.90
20182;DHT22;10250;50.756;6.172;2023-11-21T05:00:42;8.40;99.90
20182;DHT22;10250;50.756;6.172;2023-11-21T05:02:43;8.30;99.90
20182;DHT22;10250;50.756;6.172;2023-11-21T05:04:44;8.30;99.90
20182;DHT22;10250;50.756;6.172;2023-11-21T05:06:45;8.40;99.90
20182;DHT22;10250;50.756;6.172;2023-11-21T05:08:46;8.40;99.90
20182;DHT22;10250;50.756;6.172;2023-11-21T05:10:48;8.40;99.90
20182;DHT22;10250;50.756;6.172;2023-11-21T05:12:49;8.40;99.90
20182;DHT22;10250;50.756;6.172;2023-11-21T05:14:51;8.40;99.90
20182;DHT22;10250;50.756;6.172;2023-11-21T05:16:51;8.40;99.90
20182;DHT22;10250;50.756;6.172;2023-11-21T05:18:52;8.40;99.90
20182;DHT22;10250;50.756;6.172;2023-11-21T05:20:53;8.40;99.90
20182;DHT22;10250;50.756;6.172;2023-11-21T05:22:54;8.40;99.90
20182;DHT22;10250;50.756;6.172;2023-11-21T05:24:54;8.40;99.90
20182;DHT22;10250;50.756;6.172;2023-11-21T05:26:55;8.40;99.90
20182;DHT22;10250;50.756;6.172;2023-11-21T05:28:56;8.50;99.90
20182;DHT22;10250;50.756;6.172;2023-11-21T05:30:56;8.40;99.90
20182;DHT22;10250;50.756;6.172;2023-11-21T05:32:57;8.40;99.90
20182;DHT22;10250;50.756;6.172;2023-11-21T05:34:58;8.40;99.90
20182;DHT22;10250;50.756;6.172;2023-11-21T05:36:59;8.40;99.90
20182;DHT22;10250;50.756;6.172;2023-11-21T05:38:59;8.40;99.90
20182;DHT22;10250;50.756;6.172;2023-11-21T05:41:00;8.40;99.90
20182;DHT22;10250;50.756;6.172;2023-11-21T05:43:00;8.40;99.90
20182;DHT22;10250;50.756;6.172;2023-11-21T05:45:01;8.40;99.90
20182;DHT22;10250;50.756;6.172;2023-11-21T05:47:12;8.40;99.90
20182;DHT22;10250;50.756;6.172;2023-11-21T05:49:14;8.40;99.90
20182;DHT22;10250;50.756;6.172;2023-11-21T05:51:14;8.40;99.90
20182;DHT22;10250;50.756;6.172;2023-11-21T05:53:15;8.40;99.90
20182;DHT22;10250;50.756;6.172;2023-11-21T05:55:16;8.50;99.90
20182;DHT22;10250;50.756;6.172;2023-11-21T05:57:17;8.40;99.90
20182;DHT22;10250;50.756;6.172;2023-11-21T05:59:18;8.40;99.90
20182;DHT22;10250;50.756;6.172;2023-11-21T06:01:20;8.40;99.90
20182;DHT22;10250;50.756;6.172;2023-11-21T06:03:21;8.40;99.90
20182;DHT22;10250;50.756;6.172;2023-11-21T06:05:23;8.50;99.90
20182;DHT22;10250;50.756;6.172;2023-11-21T06:07:24;8.40;99.90
20182;DHT22;10250;50.756;6.172;2023-11-21T06:09:24;8.40;99.90
20182;DHT22;10250;50.756;6.172;2023-11-21T06:11:25;8.40;99.90
20182;DHT22;10250;50.756;6.172;2023-11-21T06:13:26;8.40;99.90
20182;DHT22;10250;50.756;6.172;2023-11-21T06:15:27;8.40;99.90
20182;DHT22;10250;50.756;6.172;2023-11-21T06:17:28;8.40;99.90
20182;DHT22;10250;50.756;6.172;2023-11-21T06:19:29;8.50;99.90
20182;DHT22;10250;50.756;6.172;2023-11-21T06:21:29;8.50;99.90
20182;DHT22;10250;50.756;6.172;2023-11-21T06:23:30;8.50;99.90
20182;DHT22;10250;50.756;6.172;2023-11-21T06:25:31;8.50;99.90
20182;DHT22;10250;50.756;6.172;2023-11-21T06:27:45;8.50;99.90
20182;DHT22;10250;50.756;6.172;2023-11-21T06:29:45;8.50;99.90
20182;DHT22;10250;50.756;6.172;2023-11-21T06:31:47;8.50;99.90
20182;DHT22;10250;50.756;6.172;2023-11-21T06:33:48;8.50;99.90
20182;DHT22;10250;50.756;6.172;2023-11-21T06:35:48;8.50;99.90
20182;DHT22;10250;50.756;6.172;2023-11-21T06:37:50;8.50;99.90
20182;DHT22;10250;50.756;6.172;2023-11-21T06:39:51;8.50;99.90
20182;DHT22;10250;50.756;6.172;2023-11-21T06:41:52;8.50;99.90
20182;DHT22;10250;50.756;6.172;2023-11-21T06:43:53;8.40;99.90
20182;DHT22;10250;50.756;6.172;2023-11-21T06:45:53;8.40;99.90
20182;DHT22;10250;50.756;6.172;2023-11-21T06:47:54;8.40;99.90
20182;DHT22;10250;50.756;6.172;2023-11-21T06:49:56;8.40;99.90
20182;DHT22;10250;50.756;6.172;2023-11-21T06:51:56;8.40;99.90
20182;DHT22;10250;50.756;6.172;2023-11-21T06:53:57;8.40;99.90
20182;DHT22;10250;50.756;6.172;2023-11-21T06:55:58;8.40;99.90
20182;DHT22;10250;50.756;6.172;2023-11-21T06:57:59;8.40;99.90
20182;DHT22;10250;50.756;6.172;2023-11-21T07:00:00;8.40;99.90
20182;DHT22;10250;50.756;6.172;2023-11-21T07:02:01;8.40;99.90
20182;DHT22;10250;50.756;6.172;2023-11-21T07:04:02;8.40;99.90
20182;DHT22;10250;50.756;6.172;2023-11-21T07:06:03;8.40;99.90
20182;DHT22;10250;50.756;6.172;2023-11-21T07:08:04;8.40;99.90
20182;DHT22;10250;50.756;6.172;2023-11-21T07:10:05;8.30;99.90
20182;DHT22;10250;50.756;6.172;2023-11-21T07:12:06;8.30;99.90
20182;DHT22;10250;50.756;6.172;2023-11-21T07:14:08;8.30;99.90
20182;DHT22;10250;50.756;6.172;2023-11-21T07:16:09;8.30;99.90
20182;DHT22;10250;50.756;6.172;2023-11-21T07:18:10;8.40;99.90
20182;DHT22;10250;50.756;6.172;2023-11-21T07:20:12;8.40;99.90
20182;DHT22;10250;50.756;6.172;2023-11-21T07:22:12;8.40;99.90
20182;DHT22;10250;50.756;6.172;2023-11-21T07:24:14;8.40;99.90
20182;DHT22;10250;50.756;6.172;2023-11-21T07:26:14;8.40;99.90
20182;DHT22;10250;50.756;6.172;2023-11-21T07:28:15;8.40;99.90
20182;DHT22;10250;50.756;6.172;2023-11-21T07:30:16;8.40;99.90
20182;DHT22;10250;50.756;6.172;2023-11-21T07:32:17;8.50;99.90
20182;DHT22;10250;50.756;6.172;2023-11-21T07:34:19;8.50;99.90
20182;DHT22;10250;50.756;6.172;2023-11-21T07:36:20;8.40;99.90
20182;DHT22;10250;50.756;6.172;2023-11-21T07:38:23;8.40;99.90
20182;DHT22;10250;50.756;6.172;2023-11-21T07:40:24;8.50;99.90
20182;DHT22;10250;50.756;6.172;2023-11-21T07:42:24;8.50;99.90
20182;DHT22;10250;50.756;6.172;2023-11-21T07:44:26;8.60;99.90
20182;DHT22;10250;50.756;6.172;2023-11-21T07:46:27;8.50;99.90
20182;DHT22;10250;50.756;6.172;2023-11-21T07:48:28;8.60;99.90
20182;DHT22;10250;50.756;6.172;2023-11-21T07:50:29;8.60;99.90
20182;DHT22;10250;50.756;6.172;2023-11-21T07:52:29;8.60;99.90
20182;DHT22;10250;50.756;6.172;2023-11-21T07:54:30;8.60;99.90
20182;DHT22;10250;50.756;6.172;2023-11-21T07:56:30;8.60;99.90
20182;DHT22;10250;50.756;6.172;2023-11-21T07:58:31;8.60;99.90
20182;DHT22;10250;50.756;6.172;2023-11-21T08:00:33;8.70;99.90
20182;DHT22;10250;50.756;6.172;2023-11-21T08:02:35;8.60;99.90
20182;DHT22;10250;50.756;6.172;2023-11-21T08:04:35;8.60;99.90
20182;DHT22;10250;50.756;6.172;2023-11-21T08:06:36;8.60;99.90
20182;DHT22;10250;50.756;6.172;2023-11-21T08:08:36;8.70;99.90
20182;DHT22;10250;50.756;6.172;2023-11-21T08:10:37;8.70;99.90
20182;DHT22;10250;50.756;6.172;2023-11-21T08:12:39;8.70;99.90
20182;DHT22;10250;50.756;6.172;2023-11-21T08:14:39;8.70;99.90
20182;DHT22;10250;50.756;6.172;2023-11-21T08:16:41;8.60;99.90
20182;DHT22;10250;50.756;6.172;2023-11-21T08:18:41;8.70;99.90
20182;DHT22;10250;50.756;6.172;2023-11-21T08:20:42;8.70;99.90
20182;DHT22;10250;50.756;6.172;2023-11-21T08:22:46;8.80;99.90
20182;DHT22;10250;50.756;6.172;2023-11-21T08:24:48;8.80;99.90
20182;DHT22;10250;50.756;6.172;2023-11-21T08:26:48;8.80;99.90
20182;DHT22;10250;50.756;6.172;2023-11-21T08:28:50;8.80;99.90
20182;DHT22;10250;50.756;6.172;2023-11-21T08:30:53;8.80;99.90
20182;DHT22;10250;50.756;6.172;2023-11-21T08:32:54;8.80;99.90
20182;DHT22;10250;50.756;6.172;2023-11-21T08:34:58;8.80;99.90
20182;DHT22;10250;50.756;6.172;2023-11-21T08:36:59;8.80;99.90
20182;DHT22;10250;50.756;6.172;2023-11-21T08:39:00;8.90;99.90
20182;DHT22;10250;50.756;6.172;2023-11-21T08:41:01;8.90;99.90
20182;DHT22;10250;50.756;6.172;2023-11-21T08:43:02;8.90;99.90
20182;DHT22;10250;50.756;6.172;2023-11-21T08:45:05;8.90;99.90
20182;DHT22;10250;50.756;6.172;2023-11-21T08:47:06;9.00;99.90
20182;DHT22;10250;50.756;6.172;2023-11-21T08:49:07;9.00;99.90
20182;DHT22;10250;50.756;6.172;2023-11-21T08:51:10;9.00;99.90
20182;DHT22;10250;50.756;6.172;2023-11-21T08:53:12;9.00;99.90
20182;DHT22;10250;50.756;6.172;2023-11-21T08:55:12;9.00;99.90
20182;DHT22;10250;50.756;6.172;2023-11-21T08:57:14;9.00;99.90
20182;DHT22;10250;50.756;6.172;2023-11-21T08:59:14;9.00;99.90
20182;DHT22;10250;50.756;6.172;2023-11-21T09:01:15;9.00;99.90
20182;DHT22;10250;50.756;6.172;2023-11-21T09:03:15;9.00;99.90
20182;DHT22;10250;50.756;6.172;2023-11-21T09:05:16;9.00;99.90
20182;DHT22;10250;50.756;6.172;2023-11-21T09:07:21;9.00;99.90
20182;DHT22;10250;50.756;6.172;2023-11-21T09:09:21;9.00;99.90
20182;DHT22;10250;50.756;6.172;2023-11-21T09:11:22;9.10;99.90
20182;DHT22;10250;50.756;6.172;2023-11-21T09:13:23;9.00;99.90
20182;DHT22;10250;50.756;6.172;2023-11-21T09:15:25;9.10;99.90
20182;DHT22;10250;50.756;6.172;2023-11-21T09:17:26;9.10;99.90
20182;DHT22;10250;50.756;6.172;2023-11-21T09:19:26;9.10;99.90
20182;DHT22;10250;50.756;6.172;2023-11-21T09:21:27;9.20;99.90
20182;DHT22;10250;50.756;6.172;2023-11-21T09:23:28;9.20;99.90
20182;DHT22;10250;50.756;6.172;2023-11-21T09:25:28;9.20;99.90
20182;DHT22;10250;50.756;6.172;2023-11-21T09:27:29;9.20;99.90
20182;DHT22;10250;50.756;6.172;2023-11-21T09:29:30;9.10;99.90
20182;DHT22;10250;50.756;6.172;2023-11-21T09:31:30;9.20;99.90
20182;DHT22;10250;50.756;6.172;2023-11-21T09:33:31;9.20;99.90
20182;DHT22;10250;50.756;6.172;2023-11-21T09:35:32;9.20;99.90
20182;DHT22;10250;50.756;6.172;2023-11-21T09:37:33;9.20;99.90
20182;DHT22;10250;50.756;6.172;2023-11-21T09:39:34;9.20;99.90
20182;DHT22;10250;50.756;6.172;2023-11-21T09:41:45;9.30;99.90
20182;DHT22;10250;50.756;6.172;2023-11-21T09:43:47;9.30;99.90
20182;DHT22;10250;50.756;6.172;2023-11-21T09:46:00;9.30;99.90
20182;DHT22;10250;50.756;6.172;2023-11-21T09:48:02;9.40;99.90
20182;DHT22;10250;50.756;6.172;2023-11-21T09:50:03;9.50;99.90
20182;DHT22;10250;50.756;6.172;2023-11-21T09:52:08;9.40;99.90
20182;DHT22;10250;50.756;6.172;2023-11-21T09:54:10;9.50;99.90
20182;DHT22;10250;50.756;6.172;2023-11-21T09:56:11;9.50;99.90
20182;DHT22;10250;50.756;6.172;2023-11-21T09:58:14;9.60;99.90
20182;DHT22;10250;50.756;6.172;2023-11-21T10:00:15;9.60;99.90
20182;DHT22;10250;50.756;6.172;2023-11-21T10:02:19;9.60;99.90
20182;DHT22;10250;50.756;6.172;2023-11-21T10:04:21;9.60;99.90
20182;DHT22;10250;50.756;6.172;2023-11-21T10:06:22;9.60;99.90
20182;DHT22;10250;50.756;6.172;2023-11-21T10:08:24;9.70;99.90
20182;DHT22;10250;50.756;6.172;2023-11-21T10:10:30;9.70;99.90
20182;DHT22;10250;50.756;6.172;2023-11-21T10:12:32;9.70;99.90
20182;DHT22;10250;50.756;6.172;2023-11-21T10:14:34;9.70;99.90
20182;DHT22;10250;50.756;6.172;2023-11-21T10:16:38;9.70;99.90
20182;DHT22;10250;50.756;6.172;2023-11-21T10:18:39;9.70;99.90
20182;DHT22;10250;50.756;6.172;2023-11-21T10:20:41;9.70;99.90
20182;DHT22;10250;50.756;6.172;2023-11-21T10:22:42;9.70;99.90
20182;DHT22;10250;50.756;6.172;2023-11-21T10:24:43;9.70;99.90
20182;DHT22;10250;50.756;6.172;2023-11-21T10:26:44;9.70;99.90
20182;DHT22;10250;50.756;6.172;2023-11-21T10:29:02;9.70;99.90
20182;DHT22;10250;50.756;6.172;2023-11-21T10:31:07;9.80;99.90
20182;DHT22;10250;50.756;6.172;2023-11-21T10:33:08;9.90;99.90
20182;DHT22;10250;50.756;6.172;2023-11-21T10:35:09;9.90;99.90
20182;DHT22;10250;50.756;6.172;2023-11-21T10:37:12;9.90;99.90
20182;DHT22;10250;50.756;6.172;2023-11-21T10:39:20;9.90;99.90
20182;DHT22;10250;50.756;6.172;2023-11-21T10:41:23;9.90;99.90
20182;DHT22;10250;50.756;6.172;2023-11-21T10:43:25;9.90;99.90
20182;DHT22;10250;50.756;6.172;2023-11-21T10:45:27;9.90;99.90
20182;DHT22;10250;50.756;6.172;2023-11-21T10:47:31;10.00;99.90
20182;DHT22;10250;50.756;6.172;2023-11-21T10:49:32;10.00;99.90
20182;DHT22;10250;50.756;6.172;2023-11-21T10:51:32;10.10;99.90
20182;DHT22;10250;50.756;6.172;2023-11-21T10:53:33;10.10;99.90
20182;DHT22;10250;50.756;6.172;2023-11-21T10:55:34;10.10;99.90
20182;DHT22;10250;50.756;6.172;2023-11-21T10:57:35;10.20;99.90
20182;DHT22;10250;50.756;6.172;2023-11-21T10:59:36;10.10;99.90
20182;DHT22;10250;50.756;6.172;2023-11-21T11:01:36;10.20;99.90
20182;DHT22;10250;50.756;6.172;2023-11-21T11:03:37;10.20;99.90
20182;DHT22;10250;50.756;6.172;2023-11-21T11:05:38;10.20;99.90
20182;DHT22;10250;50.756;6.172;2023-11-21T11:07:43;10.20;99.90
20182;DHT22;10250;50.756;6.172;2023-11-21T11:09:45;10.10;99.90
20182;DHT22;10250;50.756;6.172;2023-11-21T11:11:46;10.10;99.90
20182;DHT22;10250;50.756;6.172;2023-11-21T11:13:47;10.20;99.90
20182;DHT22;10250;50.756;6.172;2023-11-21T11:15:48;10.20;99.90
20182;DHT22;10250;50.756;6.172;2023-11-21T11:17:49;10.10;99.90
20182;DHT22;10250;50.756;6.172;2023-11-21T11:19:50;10.00;99.90
20182;DHT22;10250;50.756;6.172;2023-11-21T11:27:15;10.00;99.90
20182;DHT22;10250;50.756;6.172;2023-11-21T11:32:09;10.00;99.90
20182;DHT22;10250;50.756;6.172;2023-11-21T11:34:43;10.00;99.90
20182;DHT22;10250;50.756;6.172;2023-11-21T11:37:11;10.10;99.90
20182;DHT22;10250;50.756;6.172;2023-11-21T11:41:36;10.00;99.90
20182;DHT22;10250;50.756;6.172;2023-11-21T11:43:36;9.90;99.90
20182;DHT22;10250;50.756;6.172;2023-11-21T11:45:44;10.10;99.90
20182;DHT22;10250;50.756;6.172;2023-11-21T11:47:56;10.10;99.90
20182;DHT22;10250;50.756;6.172;2023-11-21T11:50:07;10.00;99.90
20182;DHT22;10250;50.756;6.172;2023-11-21T11:52:52;10.00;99.90
20182;DHT22;10250;50.756;6.172;2023-11-21T11:54:56;10.00;99.90
20182;DHT22;10250;50.756;6.172;2023-11-21T11:56:56;10.00;99.90
20182;DHT22;10250;50.756;6.172;2023-11-21T11:59:01;10.10;99.90
20182;DHT22;10250;50.756;6.172;2023-11-21T12:01:11;10.10;99.90
20182;DHT22;10250;50.756;6.172;2023-11-21T12:03:13;10.10;99.90
20182;DHT22;10250;50.756;6.172;2023-11-21T12:05:16;10.10;99.90
20182;DHT22;10250;50.756;6.172;2023-11-21T12:07:18;10.10;99.90
20182;DHT22;10250;50.756;6.172;2023-11-21T12:11:20;10.10;99.90
20182;DHT22;10250;50.756;6.172;2023-11-21T12:13:20;10.10;99.90
20182;DHT22;10250;50.756;6.172;2023-11-21T12:15:24;10.20;99.90
20182;DHT22;10250;50.756;6.172;2023-11-21T12:17:25;10.20;99.90
20182;DHT22;10250;50.756;6.172;2023-11-21T12:19:26;10.10;99.90
20182;DHT22;10250;50.756;6.172;2023-11-21T12:21:27;10.10;99.90
20182;DHT22;10250;50.756;6.172;2023-11-21T12:23:29;10.10;99.90
20182;DHT22;10250;50.756;6.172;2023-11-21T12:25:30;10.10;99.90
20182;DHT22;10250;50.756;6.172;2023-11-21T12:27:34;10.20;99.90
20182;DHT22;10250;50.756;6.172;2023-11-21T12:29:35;10.30;99.90
20182;DHT22;10250;50.756;6.172;2023-11-21T12:31:38;10.40;99.90
20182;DHT22;10250;50.756;6.172;2023-11-21T12:33:39;10.40;99.90
20182;DHT22;10250;50.756;6.172;2023-11-21T12:35:41;10.30;99.90
20182;DHT22;10250;50.756;6.172;2023-11-21T12:37:43;10.30;99.90
20182;DHT22;10250;50.756;6.172;2023-11-21T12:39:44;10.30;99.90
20182;DHT22;10250;50.756;6.172;2023-11-21T12:41:44;10.30;99.90
20182;DHT22;10250;50.756;6.172;2023-11-21T12:43:46;10.30;99.90
20182;DHT22;10250;50.756;6.172;2023-11-21T12:45:48;10.30;99.90
20182;DHT22;10250;50.756;6.172;2023-11-21T12:49:53;10.20;99.90
20182;DHT22;10250;50.756;6.172;2023-11-21T12:51:53;10.20;99.90
20182;DHT22;10250;50.756;6.172;2023-11-21T12:53:55;10.30;99.90
20182;DHT22;10250;50.756;6.172;2023-11-21T12:55:56;10.30;99.90
20182;DHT22;10250;50.756;6.172;2023-11-21T12:58:01;10.30;99.90
20182;DHT22;10250;50.756;6.172;2023-11-21T13:00:09;10.30;99.90
20182;DHT22;10250;50.756;6.172;2023-11-21T13:02:14;10.30;99.90
20182;DHT22;10250;50.756;6.172;2023-11-21T13:04:15;10.30;99.90
20182;DHT22;10250;50.756;6.172;2023-11-21T13:06:17;10.40;99.90
20182;DHT22;10250;50.756;6.172;2023-11-21T13:08:18;10.40;99.90
20182;DHT22;10250;50.756;6.172;2023-11-21T13:10:24;10.40;99.90
20182;DHT22;10250;50.756;6.172;2023-11-21T13:12:26;10.40;99.90
20182;DHT22;10250;50.756;6.172;2023-11-21T13:14:30;10.40;99.90